Time;durP1;ratioP1;P1;durP2;ratioP2;P2;SDS_P1;SDS_P2;PMS_P1;PMS_P2;Temp;Humidity;BMP_temperature;BMP_pressure;BME280_temperature;BME280_humidity;BME280_pressure;Samples;Min_cycle;Max_cycle;Signal;HPM_P1;HPM_P2
2024/03/15 00:02:23;;;;;;;10.57;7.03;;;;;;;;;;4995406;28;20415;-84
2024/03/15 00:04:51;;;;;;;8.47;5.93;;;;;;;;;;4994348;28;20430;-86
2024/03/15 00:07:18;;;;;;;8.63;5.90;;;;;;;;;;4991705;28;20488;-84
2024/03/15 00:09:44;;;;;;;11.93;6.93;;;;;;;;;;4990994;28;20992;-86
2024/03/15 00:12:09;;;;;;;10.50;5.80;;;;;;;;;;4973775;28;20498;-85
2024/03/15 00:14:36;;;;;;;9.93;7.87;;;;;;;;;;4984495;28;20278;-86
2024/03/15 00:17:02;;;;;;;11.83;7.20;;;;;;;;;;4994404;28;20482;-85
2024/03/15 00:19:28;;;;;;;10.63;6.23;;;;;;;;;;4994261;28;20509;-87
2024/03/15 00:21:54;;;;;;;10.83;6.30;;;;;;;;;;4995361;28;20409;-85
2024/03/15 00:24:20;;;;;;;9.30;6.43;;;;;;;;;;4995308;28;20464;-84
2024/03/15 00:26:46;;;;;;;9.00;7.30;;;;;;;;;;4994399;28;20444;-86
2024/03/15 00:29:12;;;;;;;9.60;6.57;;;;;;;;;;4995011;28;20470;-84
2024/03/15 00:31:40;;;;;;;11.03;7.37;;;;;;;;;;4981078;28;21258;-84
2024/03/15 00:34:07;;;;;;;11.13;7.97;;;;;;;;;;4975427;28;20497;-82
2024/03/15 00:36:33;;;;;;;9.90;6.83;;;;;;;;;;4975233;28;20436;-87
2024/03/15 00:38:59;;;;;;;11.20;7.07;;;;;;;;;;4976484;28;20409;-81
2024/03/15 00:41:26;;;;;;;9.50;6.70;;;;;;;;;;4976508;28;20417;-85
2024/03/15 00:43:55;;;;;;;9.90;6.77;;;;;;;;;;4977230;28;20913;-82
2024/03/15 00:46:21;;;;;;;8.90;6.60;;;;;;;;;;4976822;28;20425;-84
2024/03/15 00:48:47;;;;;;;9.27;7.60;;;;;;;;;;4975776;28;21076;-85
2024/03/15 00:51:13;;;;;;;8.10;7.27;;;;;;;;;;4975990;28;20813;-87
2024/03/15 00:53:40;;;;;;;9.37;5.53;;;;;;;;;;4974389;28;20437;-84
2024/03/15 00:56:06;;;;;;;9.30;7.10;;;;;;;;;;4973833;28;20882;-82
2024/03/15 00:58:32;;;;;;;10.00;7.37;;;;;;;;;;4975283;28;20534;-84
2024/03/15 01:00:59;;;;;;;10.27;6.57;;;;;;;;;;4975294;28;20421;-81
2024/03/15 01:03:25;;;;;;;9.87;6.93;;;;;;;;;;4974076;28;20432;-86
2024/03/15 01:05:51;;;;;;;9.27;6.67;;;;;;;;;;4975345;28;20783;-82
2024/03/15 01:08:18;;;;;;;13.80;7.73;;;;;;;;;;4986061;28;20957;-83
2024/03/15 01:10:46;;;;;;;10.80;7.87;;;;;;;;;;4974359;28;20412;-86
2024/03/15 01:13:12;;;;;;;9.17;6.70;;;;;;;;;;4973840;28;20493;-86
2024/03/15 01:15:37;;;;;;;8.97;6.43;;;;;;;;;;4975107;28;20557;-82
2024/03/15 01:18:04;;;;;;;9.40;6.37;;;;;;;;;;4973647;28;20798;-82
2024/03/15 01:20:30;;;;;;;9.83;6.30;;;;;;;;;;4973651;28;20430;-83
2024/03/15 01:22:56;;;;;;;9.07;6.67;;;;;;;;;;4973686;28;20465;-86
2024/03/15 01:25:23;;;;;;;7.37;5.53;;;;;;;;;;4981615;28;20443;-85
2024/03/15 01:27:49;;;;;;;11.70;6.27;;;;;;;;;;4994334;28;20509;-85
2024/03/15 01:30:15;;;;;;;8.90;6.87;;;;;;;;;;4993932;28;20781;-84
2024/03/15 01:32:41;;;;;;;11.73;7.13;;;;;;;;;;4994092;28;20837;-87
2024/03/15 01:35:07;;;;;;;11.33;7.10;;;;;;;;;;4993099;28;21003;-84
2024/03/15 01:37:36;;;;;;;14.00;7.60;;;;;;;;;;4992908;28;20762;-85
2024/03/15 01:40:02;;;;;;;7.93;6.83;;;;;;;;;;4993152;28;20413;-88
2024/03/15 01:42:28;;;;;;;9.43;7.17;;;;;;;;;;4994329;28;20417;-88
2024/03/15 01:44:57;;;;;;;9.30;7.53;;;;;;;;;;4992770;28;20915;-83
2024/03/15 01:47:26;;;;;;;8.93;6.53;;;;;;;;;;4994345;28;20432;-90
2024/03/15 01:49:56;;;;;;;9.60;6.40;;;;;;;;;;4994126;28;20481;-87
2024/03/15 01:52:22;;;;;;;9.80;6.73;;;;;;;;;;4992949;28;20500;-87
2024/03/15 01:54:49;;;;;;;11.70;7.60;;;;;;;;;;4993527;28;20464;-83
2024/03/15 01:57:15;;;;;;;10.37;6.83;;;;;;;;;;4995151;28;20418;-82
2024/03/15 01:59:41;;;;;;;9.30;6.37;;;;;;;;;;4994591;28;20426;-84
2024/03/15 02:02:09;;;;;;;8.83;5.50;;;;;;;;;;4994586;28;20459;-89
2024/03/15 02:04:35;;;;;;;7.67;6.00;;;;;;;;;;4993951;28;20429;-84
2024/03/15 02:07:01;;;;;;;7.90;6.20;;;;;;;;;;4986925;28;20810;-86
2024/03/15 02:09:28;;;;;;;9.20;6.87;;;;;;;;;;4974493;28;20478;-91
2024/03/15 02:11:54;;;;;;;9.53;6.60;;;;;;;;;;4974300;28;20437;-87
2024/03/15 02:14:20;;;;;;;9.00;7.07;;;;;;;;;;4974979;28;20447;-89
2024/03/15 02:16:46;;;;;;;9.93;7.00;;;;;;;;;;4974210;28;20472;-90
2024/03/15 02:19:14;;;;;;;11.53;7.50;;;;;;;;;;4983037;28;20456;-86
2024/03/15 02:21:40;;;;;;;14.13;9.10;;;;;;;;;;4991043;28;20424;-83
2024/03/15 02:24:06;;;;;;;8.40;7.53;;;;;;;;;;4993318;28;20421;-82
2024/03/15 02:26:33;;;;;;;12.50;7.17;;;;;;;;;;4993470;28;20417;-81
2024/03/15 02:28:59;;;;;;;9.47;7.67;;;;;;;;;;4993508;28;20491;-82
2024/03/15 02:31:25;;;;;;;9.47;6.30;;;;;;;;;;4992458;28;21043;-82
2024/03/15 02:33:54;;;;;;;8.60;7.23;;;;;;;;;;4993678;28;20416;-86
2024/03/15 02:36:20;;;;;;;8.43;7.20;;;;;;;;;;4993653;28;20415;-84
2024/03/15 02:38:47;;;;;;;9.77;8.53;;;;;;;;;;4992359;28;20937;-83
2024/03/15 02:41:13;;;;;;;9.40;7.63;;;;;;;;;;4993406;28;20427;-87
2024/03/15 02:43:40;;;;;;;15.63;7.70;;;;;;;;;;4992369;28;20428;-82
2024/03/15 02:46:06;;;;;;;10.00;7.47;;;;;;;;;;4992249;28;20427;-84
2024/03/15 02:48:32;;;;;;;13.53;7.00;;;;;;;;;;4993502;28;20897;-83
2024/03/15 02:50:59;;;;;;;10.40;7.60;;;;;;;;;;4993389;28;20771;-82
2024/03/15 02:53:25;;;;;;;12.03;8.50;;;;;;;;;;4993461;28;20417;-84
2024/03/15 02:55:51;;;;;;;9.13;6.23;;;;;;;;;;4991892;28;20480;-82
2024/03/15 02:58:19;;;;;;;10.50;6.27;;;;;;;;;;4992209;28;20446;-83
2024/03/15 03:00:46;;;;;;;8.60;7.20;;;;;;;;;;4993159;28;20415;-83
2024/03/15 03:03:12;;;;;;;12.13;8.20;;;;;;;;;;4992068;28;20428;-82
2024/03/15 03:05:39;;;;;;;9.43;7.60;;;;;;;;;;4993831;28;20748;-83
2024/03/15 03:08:05;;;;;;;10.60;8.33;;;;;;;;;;4993346;28;20416;-83
2024/03/15 03:10:31;;;;;;;9.80;8.80;;;;;;;;;;4991647;28;21015;-83
2024/03/15 03:12:57;;;;;;;11.53;8.37;;;;;;;;;;4993321;28;20772;-82
2024/03/15 03:15:23;;;;;;;12.57;9.87;;;;;;;;;;4993161;28;20420;-83
2024/03/15 03:17:49;;;;;;;11.80;9.23;;;;;;;;;;4993310;28;20447;-83
2024/03/15 03:20:19;;;;;;;11.40;9.00;;;;;;;;;;4992756;28;20429;-84
2024/03/15 03:22:48;;;;;;;13.73;9.03;;;;;;;;;;4992724;28;20412;-83
2024/03/15 03:25:14;;;;;;;11.50;9.27;;;;;;;;;;4992667;28;20424;-83
2024/03/15 03:27:40;;;;;;;8.87;7.20;;;;;;;;;;4993095;28;20426;-83
2024/03/15 03:30:07;;;;;;;12.97;10.03;;;;;;;;;;4992990;28;20480;-82
2024/03/15 03:32:35;;;;;;;11.27;8.30;;;;;;;;;;4993060;28;20421;-83
2024/03/15 03:35:03;;;;;;;11.77;7.80;;;;;;;;;;4994408;28;20442;-83
2024/03/15 03:37:28;;;;;;;10.20;8.77;;;;;;;;;;4994856;28;20413;-84
2024/03/15 03:39:54;;;;;;;14.10;10.00;;;;;;;;;;4996206;28;20439;-83
2024/03/15 03:42:21;;;;;;;13.63;9.70;;;;;;;;;;4996600;28;20471;-85
2024/03/15 03:44:47;;;;;;;10.70;9.33;;;;;;;;;;4996578;28;20419;-84
2024/03/15 03:47:13;;;;;;;10.90;8.97;;;;;;;;;;4996417;28;20409;-85
2024/03/15 03:49:38;;;;;;;12.20;10.17;;;;;;;;;;4996344;28;20530;-84
2024/03/15 03:52:04;;;;;;;11.83;9.10;;;;;;;;;;4996353;28;20176;-84
2024/03/15 03:54:31;;;;;;;9.90;8.57;;;;;;;;;;4996325;28;20456;-84
2024/03/15 03:56:57;;;;;;;9.90;8.00;;;;;;;;;;4995958;28;20409;-85
2024/03/15 03:59:23;;;;;;;12.53;9.83;;;;;;;;;;4996347;28;20447;-85
2024/03/15 04:01:50;;;;;;;10.60;9.20;;;;;;;;;;4995079;28;20174;-87
2024/03/15 04:04:16;;;;;;;12.20;9.43;;;;;;;;;;4994984;28;20421;-84
2024/03/15 04:06:51;;;;;;;12.27;9.53;;;;;;;;;;4996337;28;20926;-84
2024/03/15 04:09:19;;;;;;;12.67;9.60;;;;;;;;;;4996120;28;20550;-84
2024/03/15 04:11:45;;;;;;;12.17;8.30;;;;;;;;;;4995737;28;20562;-86
2024/03/15 04:14:15;;;;;;;13.87;9.90;;;;;;;;;;4996017;28;20413;-85
2024/03/15 04:16:44;;;;;;;11.40;8.80;;;;;;;;;;4995948;28;20415;-85
2024/03/15 04:19:10;;;;;;;14.07;10.30;;;;;;;;;;4995913;28;20432;-85
2024/03/15 04:21:36;;;;;;;11.87;9.80;;;;;;;;;;4995825;28;20414;-84
2024/03/15 04:24:03;;;;;;;11.10;8.30;;;;;;;;;;4995848;28;20431;-85
2024/03/15 04:26:31;;;;;;;14.93;10.70;;;;;;;;;;4994118;28;20474;-84
2024/03/15 04:28:58;;;;;;;11.23;8.90;;;;;;;;;;4994132;28;21007;-84
2024/03/15 04:31:24;;;;;;;12.40;8.67;;;;;;;;;;4994348;28;20439;-83
2024/03/15 04:33:50;;;;;;;10.80;8.60;;;;;;;;;;4995542;28;20431;-83
2024/03/15 04:36:16;;;;;;;11.03;8.57;;;;;;;;;;4995597;28;20424;-83
2024/03/15 04:38:43;;;;;;;15.00;10.57;;;;;;;;;;4995554;28;20499;-85
2024/03/15 04:41:09;;;;;;;15.17;11.30;;;;;;;;;;4995089;28;20439;-85
2024/03/15 04:43:36;;;;;;;14.20;10.80;;;;;;;;;;4994230;28;20416;-86
2024/03/15 04:46:03;;;;;;;16.17;9.80;;;;;;;;;;4993321;28;20178;-85
2024/03/15 04:48:29;;;;;;;14.60;9.67;;;;;;;;;;4994055;28;20633;-86
2024/03/15 04:50:55;;;;;;;9.57;8.53;;;;;;;;;;4994126;28;20531;-85
2024/03/15 04:53:21;;;;;;;12.00;9.00;;;;;;;;;;4995320;28;20850;-85
2024/03/15 04:55:47;;;;;;;11.73;9.67;;;;;;;;;;4993701;28;20529;-85
2024/03/15 04:58:12;;;;;;;14.27;10.40;;;;;;;;;;4995040;28;20804;-85
2024/03/15 05:00:38;;;;;;;13.73;11.47;;;;;;;;;;4993810;28;20428;-85
2024/03/15 05:03:07;;;;;;;14.20;10.20;;;;;;;;;;4995025;28;20465;-83
2024/03/15 05:05:33;;;;;;;13.70;10.53;;;;;;;;;;4995011;28;20428;-87
2024/03/15 05:07:59;;;;;;;15.43;11.67;;;;;;;;;;4994975;28;20504;-85
2024/03/15 05:10:31;;;;;;;13.90;9.70;;;;;;;;;;4994461;28;20536;-84
2024/03/15 05:12:57;;;;;;;10.47;9.20;;;;;;;;;;4993683;28;20817;-85
2024/03/15 05:15:23;;;;;;;14.30;10.63;;;;;;;;;;4994848;28;20462;-84
2024/03/15 05:17:49;;;;;;;12.23;9.60;;;;;;;;;;4994797;28;20478;-84
2024/03/15 05:20:15;;;;;;;12.93;9.57;;;;;;;;;;4993476;28;20414;-84
2024/03/15 05:22:44;;;;;;;12.07;9.40;;;;;;;;;;4994575;28;20417;-84
2024/03/15 05:25:13;;;;;;;11.63;9.20;;;;;;;;;;4994163;28;20443;-84
2024/03/15 05:27:39;;;;;;;10.30;9.20;;;;;;;;;;4994589;28;20408;-84
2024/03/15 05:30:06;;;;;;;12.77;9.53;;;;;;;;;;4994332;28;20847;-84
2024/03/15 05:32:32;;;;;;;13.80;10.47;;;;;;;;;;4994472;28;20418;-84
2024/03/15 05:34:59;;;;;;;12.10;10.33;;;;;;;;;;4994505;28;20420;-85
2024/03/15 05:37:26;;;;;;;14.23;11.20;;;;;;;;;;4994327;28;20403;-84
2024/03/15 05:39:52;;;;;;;12.57;10.00;;;;;;;;;;4992897;28;20417;-84
2024/03/15 05:42:18;;;;;;;14.20;11.03;;;;;;;;;;4992918;28;20416;-85
2024/03/15 05:44:45;;;;;;;10.73;8.60;;;;;;;;;;4994028;28;20421;-84
2024/03/15 05:47:12;;;;;;;15.23;9.07;;;;;;;;;;4994215;28;20460;-84
2024/03/15 05:49:38;;;;;;;11.93;10.43;;;;;;;;;;4993943;28;20479;-84
2024/03/15 05:52:04;;;;;;;14.57;11.63;;;;;;;;;;4994131;28;20411;-86
2024/03/15 05:54:30;;;;;;;12.37;9.77;;;;;;;;;;4993688;28;20478;-84
2024/03/15 05:56:56;;;;;;;11.00;9.40;;;;;;;;;;4992647;28;20901;-85
2024/03/15 05:59:22;;;;;;;13.10;9.20;;;;;;;;;;4994126;28;20176;-85
2024/03/15 06:01:48;;;;;;;11.03;9.70;;;;;;;;;;4993884;28;20405;-85
2024/03/15 06:04:14;;;;;;;11.10;8.67;;;;;;;;;;4993785;28;20414;-84
2024/03/15 06:06:42;;;;;;;12.57;10.17;;;;;;;;;;4994014;28;20414;-84
2024/03/15 06:09:09;;;;;;;12.03;9.20;;;;;;;;;;4993782;28;21006;-84
2024/03/15 06:11:38;;;;;;;11.77;10.57;;;;;;;;;;4992300;28;20415;-86
2024/03/15 06:14:04;;;;;;;11.20;9.27;;;;;;;;;;4992524;28;20455;-86
2024/03/15 06:16:31;;;;;;;10.60;9.47;;;;;;;;;;4992582;28;20458;-86
2024/03/15 06:19:01;;;;;;;11.30;9.20;;;;;;;;;;4993708;28;20416;-85
2024/03/15 06:21:26;;;;;;;11.43;9.90;;;;;;;;;;4992448;28;20846;-85
2024/03/15 06:23:54;;;;;;;10.17;7.83;;;;;;;;;;4993716;28;20421;-86
2024/03/15 06:26:21;;;;;;;11.00;9.80;;;;;;;;;;4993877;28;20173;-88
2024/03/15 06:28:47;;;;;;;10.97;9.53;;;;;;;;;;4992877;28;20473;-88
2024/03/15 06:31:13;;;;;;;14.37;9.60;;;;;;;;;;4996785;28;20457;-88
2024/03/15 06:33:40;;;;;;;11.47;9.73;;;;;;;;;;4994338;28;20174;-88
2024/03/15 06:36:07;;;;;;;11.10;9.90;;;;;;;;;;4992463;28;20453;-88
2024/03/15 06:43:59;;;;;;;11.50;9.57;;;;;;;;;;4993747;28;20492;-87
2024/03/15 06:49:13;;;;;;;11.80;9.47;;;;;;;;;;4993697;28;20488;-85
2024/03/15 06:54:26;;;;;;;9.53;8.63;;;;;;;;;;4993419;28;20791;-86
2024/03/15 06:56:52;;;;;;;10.57;7.63;;;;;;;;;;4993596;28;20471;-85
2024/03/15 06:59:18;;;;;;;12.20;9.43;;;;;;;;;;4992317;28;20426;-84
2024/03/15 07:01:45;;;;;;;10.77;8.70;;;;;;;;;;4993625;28;20626;-85
2024/03/15 07:04:13;;;;;;;10.67;8.27;;;;;;;;;;4992262;28;20936;-84
2024/03/15 07:06:39;;;;;;;11.27;9.30;;;;;;;;;;4992507;28;20509;-86
2024/03/15 07:09:11;;;;;;;12.67;9.83;;;;;;;;;;4994353;28;20465;-83
2024/03/15 07:11:37;;;;;;;9.80;8.80;;;;;;;;;;4997251;28;20431;-82
2024/03/15 07:14:04;;;;;;;12.00;8.87;;;;;;;;;;4997247;28;20402;-90
2024/03/15 07:16:30;;;;;;;10.87;8.73;;;;;;;;;;4996044;28;20446;-81
2024/03/15 07:18:56;;;;;;;11.13;8.47;;;;;;;;;;4995791;28;20428;-81
2024/03/15 07:21:26;;;;;;;14.10;8.63;;;;;;;;;;4995291;28;20925;-82
2024/03/15 07:23:52;;;;;;;9.97;7.90;;;;;;;;;;4976767;28;20415;-82
2024/03/15 07:26:18;;;;;;;11.30;9.17;;;;;;;;;;4977290;28;20404;-82
2024/03/15 07:28:44;;;;;;;14.60;9.17;;;;;;;;;;4977126;28;20469;-84
2024/03/15 07:31:10;;;;;;;11.00;9.83;;;;;;;;;;4977419;28;20422;-89
2024/03/15 07:33:37;;;;;;;9.67;8.67;;;;;;;;;;4977801;28;20417;-83
2024/03/15 07:36:04;;;;;;;12.67;9.80;;;;;;;;;;4977297;28;20783;-85
2024/03/15 07:38:30;;;;;;;13.67;9.27;;;;;;;;;;4977672;28;20411;-86
2024/03/15 07:40:56;;;;;;;12.17;9.43;;;;;;;;;;4975726;28;20429;-84
2024/03/15 07:43:22;;;;;;;10.70;9.70;;;;;;;;;;4977320;28;20411;-85
2024/03/15 07:45:48;;;;;;;9.90;7.70;;;;;;;;;;4976990;28;20408;-84
2024/03/15 07:48:14;;;;;;;11.77;8.73;;;;;;;;;;4977190;28;20459;-84
2024/03/15 07:50:41;;;;;;;11.10;9.13;;;;;;;;;;4977103;28;20282;-88
2024/03/15 07:53:08;;;;;;;10.40;8.70;;;;;;;;;;4975599;28;20452;-88
2024/03/15 07:55:35;;;;;;;11.47;8.97;;;;;;;;;;4975509;28;20432;-89
2024/03/15 07:58:01;;;;;;;10.90;9.00;;;;;;;;;;4976101;28;20424;-89
2024/03/15 08:00:27;;;;;;;11.97;7.87;;;;;;;;;;4974291;28;20507;-91
2024/03/15 08:02:54;;;;;;;10.60;8.93;;;;;;;;;;4976830;28;20728;-86
2024/03/15 08:05:23;;;;;;;9.60;8.60;;;;;;;;;;4976859;28;20469;-87
2024/03/15 08:07:50;;;;;;;12.80;7.67;;;;;;;;;;4976962;28;20948;-90
2024/03/15 08:10:17;;;;;;;11.20;9.30;;;;;;;;;;4976539;28;20482;-85
2024/03/15 08:12:43;;;;;;;11.43;9.27;;;;;;;;;;4977171;28;20468;-89
2024/03/15 08:15:09;;;;;;;9.10;7.90;;;;;;;;;;4975894;28;20421;-88
2024/03/15 08:17:35;;;;;;;11.63;7.33;;;;;;;;;;4976687;28;20544;-85
2024/03/15 08:20:03;;;;;;;11.67;7.80;;;;;;;;;;4975963;28;20429;-88
2024/03/15 08:22:29;;;;;;;11.63;8.30;;;;;;;;;;4976624;28;20833;-88
2024/03/15 08:24:55;;;;;;;10.17;7.23;;;;;;;;;;4976179;28;20790;-88
2024/03/15 08:27:22;;;;;;;13.03;8.20;;;;;;;;;;4975535;28;20417;-87
2024/03/15 08:29:48;;;;;;;8.40;6.80;;;;;;;;;;4976652;28;20309;-87
2024/03/15 08:32:13;;;;;;;8.30;6.27;;;;;;;;;;4976647;28;20442;-88
2024/03/15 08:34:39;;;;;;;6.83;6.13;;;;;;;;;;4976713;28;20179;-88
2024/03/15 08:37:07;;;;;;;8.50;7.70;;;;;;;;;;4976893;28;20628;-92
2024/03/15 08:39:33;;;;;;;8.50;7.63;;;;;;;;;;4976639;28;20907;-91
2024/03/15 08:41:59;;;;;;;9.93;7.60;;;;;;;;;;4977360;28;20418;-88
2024/03/15 08:44:25;;;;;;;7.57;6.77;;;;;;;;;;4976968;28;20177;-90
2024/03/15 08:46:51;;;;;;;7.70;6.23;;;;;;;;;;4975510;28;20787;-88
2024/03/15 08:49:17;;;;;;;9.37;6.27;;;;;;;;;;4976791;28;20209;-87
2024/03/15 08:51:46;;;;;;;8.93;6.90;;;;;;;;;;4976451;28;20433;-90
2024/03/15 08:54:12;;;;;;;7.87;5.90;;;;;;;;;;4975724;28;20198;-86
2024/03/15 08:56:40;;;;;;;6.67;5.93;;;;;;;;;;4978459;28;20463;-82
2024/03/15 08:59:06;;;;;;;7.70;6.83;;;;;;;;;;4995111;28;20509;-84
2024/03/15 09:01:35;;;;;;;8.20;6.23;;;;;;;;;;4994971;28;20842;-85
2024/03/15 09:04:01;;;;;;;7.67;6.87;;;;;;;;;;4995091;28;20777;-88
2024/03/15 09:06:30;;;;;;;6.90;6.20;;;;;;;;;;4995118;28;20757;-86
2024/03/15 09:08:56;;;;;;;6.63;5.63;;;;;;;;;;4994572;28;20451;-89
2024/03/15 09:11:25;;;;;;;8.00;6.00;;;;;;;;;;4995206;28;20415;-83
2024/03/15 09:13:52;;;;;;;7.20;6.53;;;;;;;;;;4995373;28;20442;-90
2024/03/15 09:16:20;;;;;;;7.60;6.60;;;;;;;;;;4994764;28;20502;-79
2024/03/15 09:18:47;;;;;;;7.27;6.57;;;;;;;;;;4994709;28;20422;-78
2024/03/15 09:21:13;;;;;;;10.17;6.47;;;;;;;;;;4994754;28;20766;-78
2024/03/15 09:23:39;;;;;;;10.37;6.10;;;;;;;;;;4994658;28;20426;-78
2024/03/15 09:26:06;;;;;;;7.33;6.63;;;;;;;;;;4994040;28;20415;-78
2024/03/15 09:28:37;;;;;;;8.43;7.20;;;;;;;;;;4994447;28;20172;-82
2024/03/15 09:31:08;;;;;;;8.67;7.60;;;;;;;;;;4994238;28;20425;-78
2024/03/15 09:33:35;;;;;;;9.70;6.23;;;;;;;;;;4994508;28;20519;-78
2024/03/15 09:36:04;;;;;;;8.93;6.70;;;;;;;;;;4994484;28;20420;-77
2024/03/15 09:38:31;;;;;;;9.53;7.30;;;;;;;;;;4994329;28;20457;-78
2024/03/15 09:40:57;;;;;;;11.63;8.07;;;;;;;;;;4994038;28;20414;-78
2024/03/15 09:43:25;;;;;;;9.00;8.10;;;;;;;;;;4994186;28;20445;-81
2024/03/15 09:45:52;;;;;;;8.80;7.07;;;;;;;;;;4994310;28;20445;-79
2024/03/15 09:48:18;;;;;;;8.40;6.63;;;;;;;;;;4994273;28;20752;-78
2024/03/15 09:50:46;;;;;;;9.10;7.27;;;;;;;;;;4994109;28;20477;-79
2024/03/15 09:53:12;;;;;;;9.83;6.40;;;;;;;;;;4993830;28;20795;-79
2024/03/15 09:55:39;;;;;;;8.67;6.23;;;;;;;;;;4993814;28;20505;-78
2024/03/15 09:58:07;;;;;;;8.10;7.17;;;;;;;;;;4993996;28;20408;-78
2024/03/15 10:00:33;;;;;;;8.30;5.60;;;;;;;;;;4993976;28;20410;-77
2024/03/15 10:02:59;;;;;;;7.87;5.77;;;;;;;;;;4993971;28;20456;-78
2024/03/15 10:05:25;;;;;;;7.33;6.30;;;;;;;;;;4993860;28;20941;-78
2024/03/15 10:07:51;;;;;;;9.93;6.50;;;;;;;;;;4994238;28;20261;-78
2024/03/15 10:10:17;;;;;;;10.27;5.97;;;;;;;;;;4994396;28;20483;-79
2024/03/15 10:12:46;;;;;;;7.07;5.20;;;;;;;;;;4993813;28;20418;-78
2024/03/15 10:15:21;;;;;;;7.77;5.63;;;;;;;;;;4993820;28;20422;-79
2024/03/15 10:17:52;;;;;;;7.87;5.93;;;;;;;;;;4993665;28;20770;-78
2024/03/15 10:20:19;;;;;;;8.43;6.20;;;;;;;;;;4993805;28;20443;-78
2024/03/15 10:22:45;;;;;;;8.80;6.20;;;;;;;;;;4994022;28;20767;-79
2024/03/15 10:25:15;;;;;;;7.50;5.63;;;;;;;;;;4993578;28;20428;-81
2024/03/15 10:27:43;;;;;;;9.50;5.50;;;;;;;;;;4993385;28;20413;-80
2024/03/15 10:30:25;;;;;;;9.47;7.20;;;;;;;;;;4993425;28;20479;-77
2024/03/15 10:32:52;;;;;;;8.93;6.00;;;;;;;;;;4993642;28;20408;-77
2024/03/15 10:35:27;;;;;;;10.23;7.17;;;;;;;;;;4993552;28;20458;-77
2024/03/15 10:37:53;;;;;;;9.40;6.37;;;;;;;;;;4993826;28;20419;-81
2024/03/15 10:40:23;;;;;;;6.70;6.00;;;;;;;;;;4993558;28;20414;-79
2024/03/15 10:42:52;;;;;;;7.60;5.83;;;;;;;;;;4993545;28;20177;-81
2024/03/15 10:45:24;;;;;;;7.47;5.43;;;;;;;;;;4997259;28;20931;-78
2024/03/15 10:47:50;;;;;;;7.70;5.57;;;;;;;;;;4997582;28;20419;-81
2024/03/15 10:50:17;;;;;;;5.87;4.97;;;;;;;;;;4997566;28;20798;-80
2024/03/15 10:52:43;;;;;;;10.60;6.37;;;;;;;;;;4997663;28;20170;-81
2024/03/15 10:55:20;;;;;;;8.30;6.50;;;;;;;;;;4997278;28;20449;-81
2024/03/15 10:57:46;;;;;;;8.17;6.40;;;;;;;;;;4997481;28;20419;-82
2024/03/15 11:00:17;;;;;;;7.80;6.27;;;;;;;;;;4996161;28;20433;-83
2024/03/15 11:02:47;;;;;;;6.60;5.90;;;;;;;;;;4997496;28;20408;-80
2024/03/15 11:05:20;;;;;;;7.50;6.70;;;;;;;;;;4997351;28;20422;-79
2024/03/15 11:07:50;;;;;;;8.63;7.27;;;;;;;;;;4997214;28;20508;-84
2024/03/15 11:10:22;;;;;;;9.47;6.30;;;;;;;;;;4996633;28;20480;-79
2024/03/15 11:12:51;;;;;;;7.30;6.13;;;;;;;;;;4997092;28;20418;-79
2024/03/15 11:15:19;;;;;;;7.07;6.13;;;;;;;;;;4996803;28;20447;-78
2024/03/15 11:17:45;;;;;;;7.43;5.50;;;;;;;;;;4997070;28;20417;-81
2024/03/15 11:20:12;;;;;;;8.20;6.70;;;;;;;;;;4996715;28;20421;-81
2024/03/15 11:22:38;;;;;;;6.63;5.93;;;;;;;;;;4996051;28;20465;-81
2024/03/15 11:25:07;;;;;;;8.93;6.23;;;;;;;;;;4995409;28;20420;-86
2024/03/15 11:27:48;;;;;;;7.40;6.50;;;;;;;;;;4996634;28;20473;-80
2024/03/15 11:30:14;;;;;;;6.20;5.40;;;;;;;;;;4996684;28;20492;-80
2024/03/15 11:32:39;;;;;;;7.77;7.07;;;;;;;;;;4996795;28;20415;-80
2024/03/15 11:35:08;;;;;;;7.97;7.00;;;;;;;;;;4996809;28;20769;-79
2024/03/15 11:37:34;;;;;;;9.43;6.50;;;;;;;;;;4996782;28;20181;-80
2024/03/15 11:40:00;;;;;;;8.77;6.50;;;;;;;;;;4995103;28;21020;-79
2024/03/15 11:42:26;;;;;;;8.13;6.80;;;;;;;;;;4996629;28;20506;-80
2024/03/15 11:44:54;;;;;;;7.50;6.80;;;;;;;;;;4996593;28;20422;-78
2024/03/15 11:47:20;;;;;;;8.77;6.23;;;;;;;;;;4996511;28;20448;-79
2024/03/15 11:49:46;;;;;;;10.60;7.00;;;;;;;;;;4996361;28;20508;-80
2024/03/15 11:52:12;;;;;;;8.30;6.80;;;;;;;;;;4996556;28;20590;-77
2024/03/15 11:54:38;;;;;;;10.03;8.57;;;;;;;;;;4995762;28;20778;-78
2024/03/15 11:57:04;;;;;;;8.53;7.63;;;;;;;;;;4996318;28;20201;-82
2024/03/15 11:59:29;;;;;;;10.27;7.60;;;;;;;;;;4996316;28;20555;-78
2024/03/15 12:01:56;;;;;;;8.17;7.30;;;;;;;;;;4996331;28;20766;-79
2024/03/15 12:04:26;;;;;;;8.13;6.77;;;;;;;;;;4996284;28;20891;-79
2024/03/15 12:06:52;;;;;;;8.70;7.80;;;;;;;;;;4996089;28;20854;-81
2024/03/15 12:09:18;;;;;;;8.80;6.67;;;;;;;;;;4995542;28;20552;-78
2024/03/15 12:11:44;;;;;;;11.33;7.87;;;;;;;;;;4996118;28;20523;-78
2024/03/15 12:14:13;;;;;;;10.47;7.53;;;;;;;;;;4996064;28;20561;-80
2024/03/15 12:16:45;;;;;;;10.63;7.50;;;;;;;;;;4995980;28;20173;-80
2024/03/15 12:19:15;;;;;;;12.23;7.73;;;;;;;;;;4994690;28;20907;-81
2024/03/15 12:21:41;;;;;;;9.50;7.30;;;;;;;;;;4996054;28;20417;-78
2024/03/15 12:24:08;;;;;;;10.07;6.57;;;;;;;;;;4995663;28;20434;-79
2024/03/15 12:26:34;;;;;;;7.50;6.80;;;;;;;;;;4995920;28;20410;-79
2024/03/15 12:29:00;;;;;;;6.17;5.20;;;;;;;;;;4995207;28;20486;-79
2024/03/15 12:31:26;;;;;;;4.83;3.83;;;;;;;;;;4994519;28;20424;-78
2024/03/15 12:33:52;;;;;;;4.67;4.20;;;;;;;;;;4994558;28;20180;-81
2024/03/15 12:36:18;;;;;;;5.50;4.73;;;;;;;;;;4994703;28;20422;-79
2024/03/15 12:38:44;;;;;;;4.57;4.10;;;;;;;;;;4994184;28;20925;-80
2024/03/15 12:41:10;;;;;;;5.20;4.70;;;;;;;;;;4993129;28;20423;-80
2024/03/15 12:43:36;;;;;;;6.60;5.90;;;;;;;;;;4994539;28;20562;-79
2024/03/15 12:46:11;;;;;;;7.30;5.37;;;;;;;;;;4994473;28;20418;-82
2024/03/15 12:48:37;;;;;;;6.33;5.70;;;;;;;;;;4994529;28;20419;-80
2024/03/15 12:51:03;;;;;;;9.17;5.60;;;;;;;;;;4994272;28;20525;-80
2024/03/15 12:53:29;;;;;;;7.77;6.00;;;;;;;;;;4994310;28;20966;-83
2024/03/15 12:55:56;;;;;;;7.60;5.57;;;;;;;;;;4994160;28;20431;-83
2024/03/15 12:58:21;;;;;;;7.57;6.50;;;;;;;;;;4993045;28;20797;-84
2024/03/15 13:00:48;;;;;;;7.13;5.70;;;;;;;;;;4994271;28;20421;-80
2024/03/15 13:03:15;;;;;;;7.77;6.27;;;;;;;;;;4994123;28;20179;-82
2024/03/15 13:05:41;;;;;;;7.77;6.40;;;;;;;;;;4993951;28;20425;-81
2024/03/15 13:08:07;;;;;;;8.90;6.03;;;;;;;;;;4993160;28;20450;-79
2024/03/15 13:10:33;;;;;;;8.50;5.43;;;;;;;;;;4993848;28;20486;-79
2024/03/15 13:12:59;;;;;;;9.03;6.83;;;;;;;;;;4994036;28;20503;-79
2024/03/15 13:15:26;;;;;;;6.83;6.10;;;;;;;;;;4993959;28;20895;-79
2024/03/15 13:17:54;;;;;;;9.07;6.00;;;;;;;;;;4993880;28;20932;-80
2024/03/15 13:20:21;;;;;;;9.27;6.60;;;;;;;;;;4993866;28;20422;-82
2024/03/15 13:22:48;;;;;;;8.97;6.50;;;;;;;;;;4993866;28;20474;-79
2024/03/15 13:25:15;;;;;;;7.37;6.63;;;;;;;;;;4993395;28;20464;-82
2024/03/15 13:27:41;;;;;;;8.63;5.70;;;;;;;;;;4994097;28;20408;-79
2024/03/15 13:30:11;;;;;;;6.43;5.83;;;;;;;;;;5000325;28;204683;-79
2024/03/15 13:32:41;;;;;;;6.20;5.30;;;;;;;;;;4995626;28;20444;-79
2024/03/15 13:35:15;;;;;;;8.70;5.67;;;;;;;;;;4994408;28;20432;-79
2024/03/15 13:37:41;;;;;;;5.80;4.80;;;;;;;;;;4994467;28;20409;-78
2024/03/15 13:40:15;;;;;;;7.10;5.17;;;;;;;;;;4994039;28;20775;-79
2024/03/15 13:42:41;;;;;;;6.03;4.63;;;;;;;;;;4994343;28;20210;-79
2024/03/15 13:45:12;;;;;;;7.43;5.00;;;;;;;;;;4994430;28;20427;-83
2024/03/15 13:47:38;;;;;;;4.63;3.87;;;;;;;;;;4994229;28;20921;-79
2024/03/15 13:50:04;;;;;;;5.43;4.20;;;;;;;;;;4993892;28;20484;-84
2024/03/15 13:52:30;;;;;;;8.17;4.63;;;;;;;;;;4994265;28;20204;-78
2024/03/15 13:54:56;;;;;;;7.60;4.17;;;;;;;;;;4992334;28;20438;-79
2024/03/15 13:57:22;;;;;;;5.30;4.30;;;;;;;;;;4994224;28;20189;-83
2024/03/15 13:59:51;;;;;;;8.47;5.27;;;;;;;;;;4994064;28;20179;-80
2024/03/15 14:02:17;;;;;;;4.43;3.77;;;;;;;;;;4994037;28;20444;-84
2024/03/15 14:04:43;;;;;;;5.80;4.80;;;;;;;;;;4994105;28;20421;-79
2024/03/15 14:07:09;;;;;;;6.03;5.07;;;;;;;;;;4992790;28;20474;-85
2024/03/15 14:09:35;;;;;;;7.20;5.70;;;;;;;;;;4993484;28;20503;-82
2024/03/15 14:12:01;;;;;;;8.23;5.37;;;;;;;;;;4994016;28;20441;-80
2024/03/15 14:14:27;;;;;;;6.70;5.33;;;;;;;;;;4993902;28;20630;-81
2024/03/15 14:16:53;;;;;;;4.73;4.20;;;;;;;;;;4993845;28;20414;-84
2024/03/15 14:19:19;;;;;;;5.90;4.83;;;;;;;;;;4993678;28;20201;-84
2024/03/15 14:21:45;;;;;;;5.30;4.37;;;;;;;;;;4993814;28;20413;-82
2024/03/15 14:24:11;;;;;;;6.73;4.20;;;;;;;;;;4992794;28;20414;-83
2024/03/15 14:26:37;;;;;;;9.70;4.73;;;;;;;;;;4991881;28;20248;-80
2024/03/15 14:29:08;;;;;;;7.13;5.50;;;;;;;;;;4992784;28;20225;-81
2024/03/15 14:31:34;;;;;;;5.40;4.33;;;;;;;;;;4993151;28;20443;-80
2024/03/15 14:34:00;;;;;;;5.20;3.93;;;;;;;;;;4990719;28;20509;-81
2024/03/15 14:36:28;;;;;;;5.43;3.63;;;;;;;;;;4992592;28;20833;-87
2024/03/15 14:38:54;;;;;;;5.97;3.70;;;;;;;;;;4992706;28;20185;-81
2024/03/15 14:41:20;;;;;;;5.37;3.60;;;;;;;;;;4993701;28;20417;-83
2024/03/15 14:43:46;;;;;;;7.43;3.90;;;;;;;;;;4993646;28;20739;-82
2024/03/15 14:46:12;;;;;;;8.13;4.50;;;;;;;;;;4993498;28;20426;-81